Time;durP1;ratioP1;P1;durP2;ratioP2;P2;SDS_P1;SDS_P2;PMS_P1;PMS_P2;Temp;Humidity;BMP_temperature;BMP_pressure;BME280_temperature;BME280_humidity;BME280_pressure;Samples;Min_cycle;Max_cycle;Signal;HPM_P1;HPM_P2
2022/04/29 00:01:59;;;;;;;7.87;6.60;;;;;;;7.53;100.00;99196.41;5072842;28;20229;-62
2022/04/29 00:04:26;;;;;;;7.57;6.80;;;;;;;7.46;100.00;99192.28;5072803;28;20264;-63
2022/04/29 00:06:53;;;;;;;9.13;7.33;;;;;;;7.46;100.00;99197.56;5072803;28;20243;-62
2022/04/29 00:09:19;;;;;;;7.93;7.10;;;;;;;7.41;100.00;99191.66;5072898;28;20227;-63
2022/04/29 00:11:47;;;;;;;7.60;6.90;;;;;;;7.40;100.00;99190.78;5072924;28;20218;-63
2022/04/29 00:14:15;;;;;;;9.00;7.47;;;;;;;7.44;100.00;99183.63;5072437;28;20628;-63
2022/04/29 00:16:42;;;;;;;8.10;7.30;;;;;;;7.51;100.00;99185.06;5071584;28;20562;-63
2022/04/29 00:19:08;;;;;;;8.07;6.97;;;;;;;7.51;100.00;99187.72;5072866;28;20223;-63
2022/04/29 00:21:34;;;;;;;8.37;6.93;;;;;;;7.39;100.00;99190.81;5071078;28;20236;-64
2022/04/29 00:24:01;;;;;;;8.27;7.27;;;;;;;7.27;100.00;99187.84;5072481;28;20219;-62
2022/04/29 00:26:28;;;;;;;7.60;6.90;;;;;;;7.20;100.00;99187.22;5072619;28;20222;-63
2022/04/29 00:28:54;;;;;;;7.97;6.90;;;;;;;7.16;100.00;99179.50;5072753;28;20228;-62
2022/04/29 00:31:22;;;;;;;7.87;6.93;;;;;;;7.15;100.00;99178.66;5072746;28;20211;-63
2022/04/29 00:33:48;;;;;;;8.37;7.43;;;;;;;7.15;100.00;99183.06;5072531;28;20218;-62
2022/04/29 00:36:15;;;;;;;8.67;7.77;;;;;;;7.15;100.00;99180.44;5072510;28;20218;-63
2022/04/29 00:38:41;;;;;;;7.60;6.80;;;;;;;7.13;100.00;99179.63;5075137;28;20214;-63
2022/04/29 00:41:08;;;;;;;8.00;7.20;;;;;;;7.03;100.00;99165.97;5076380;28;20219;-64
2022/04/29 00:43:34;;;;;;;8.17;7.30;;;;;;;6.97;100.00;99160.97;5076303;28;20238;-64
2022/04/29 00:46:01;;;;;;;8.77;7.80;;;;;;;6.90;100.00;99161.28;5064488;28;20230;-63
2022/04/29 00:48:29;;;;;;;8.70;7.23;;;;;;;6.92;100.00;99149.78;5074731;28;20242;-63
2022/04/29 00:50:56;;;;;;;7.80;7.10;;;;;;;6.91;100.00;99161.19;5075886;28;20695;-63
2022/04/29 00:53:24;;;;;;;8.33;7.53;;;;;;;6.86;100.00;99155.28;5075716;28;20722;-63
2022/04/29 00:55:53;;;;;;;10.17;7.93;;;;;;;6.84;100.00;99162.34;5075668;28;20688;-62
2022/04/29 00:58:24;;;;;;;8.10;7.30;;;;;;;6.79;100.00;99161.66;5075222;28;20213;-62
2022/04/29 01:00:51;;;;;;;8.63;7.80;;;;;;;6.71;100.00;99166.34;5064046;28;21147;-63
2022/04/29 01:03:18;;;;;;;8.33;7.50;;;;;;;6.63;100.00;99165.78;5066128;28;20223;-63
2022/04/29 01:05:49;;;;;;;8.10;7.30;;;;;;;6.51;100.00;99162.75;5068401;28;20555;-62
2022/04/29 01:08:16;;;;;;;8.13;7.33;;;;;;;6.46;100.00;99162.94;5066785;28;20266;-63
2022/04/29 01:10:45;;;;;;;8.17;7.37;;;;;;;6.45;100.00;99158.59;5064443;28;20224;-63
2022/04/29 01:13:12;;;;;;;8.77;7.87;;;;;;;6.49;100.00;99154.94;5072621;28;20221;-63
2022/04/29 01:15:39;;;;;;;8.70;7.90;;;;;;;6.53;100.00;99151.28;5075672;28;20211;-63
2022/04/29 01:18:09;;;;;;;9.10;8.20;;;;;;;6.62;100.00;99144.81;5075751;28;20218;-64
2022/04/29 01:20:37;;;;;;;9.30;8.20;;;;;;;6.65;100.00;99127.19;5075734;28;20219;-63
2022/04/29 01:23:09;;;;;;;9.13;8.20;;;;;;;6.68;100.00;99134.97;5075590;28;20344;-63
2022/04/29 01:25:36;;;;;;;9.57;7.97;;;;;;;6.66;100.00;99135.94;5074955;28;20298;-65
2022/04/29 01:28:03;;;;;;;9.60;8.57;;;;;;;6.58;100.00;99133.59;5075204;28;20238;-65
2022/04/29 01:30:31;;;;;;;9.60;8.60;;;;;;;6.48;100.00;99134.00;5075527;28;20211;-63
2022/04/29 01:32:58;;;;;;;8.33;7.53;;;;;;;6.49;100.00;99127.81;5075330;28;20225;-64
2022/04/29 01:35:25;;;;;;;9.00;8.10;;;;;;;6.47;100.00;99127.03;5075727;28;20218;-63
2022/04/29 01:37:51;;;;;;;9.17;8.27;;;;;;;6.47;100.00;99121.78;5074993;28;20218;-63
2022/04/29 01:40:19;;;;;;;9.47;8.47;;;;;;;6.45;100.00;99124.44;5073155;28;20226;-63
2022/04/29 01:42:45;;;;;;;9.80;8.80;;;;;;;6.45;100.00;99123.59;5074988;28;20250;-64
2022/04/29 01:45:12;;;;;;;10.23;8.57;;;;;;;6.41;100.00;99125.47;5075125;28;20221;-63
2022/04/29 01:47:39;;;;;;;9.63;8.63;;;;;;;6.41;100.00;99130.72;5074896;28;20249;-63
2022/04/29 01:50:06;;;;;;;8.67;7.73;;;;;;;6.35;100.00;99135.34;5074393;28;20222;-64
2022/04/29 01:52:32;;;;;;;10.33;8.33;;;;;;;6.26;100.00;99136.53;5074966;28;20246;-64
2022/04/29 01:54:59;;;;;;;9.40;7.77;;;;;;;6.18;100.00;99143.81;5074881;28;20226;-64
2022/04/29 01:57:27;;;;;;;8.50;7.70;;;;;;;6.15;100.00;99141.31;5074882;28;20578;-63
2022/04/29 01:59:53;;;;;;;9.23;8.33;;;;;;;6.20;100.00;99141.13;5068007;28;20587;-62
2022/04/29 02:02:21;;;;;;;9.50;8.50;;;;;;;6.21;100.00;99133.22;5072692;28;20671;-63
2022/04/29 02:04:47;;;;;;;10.30;8.70;;;;;;;6.27;100.00;99130.38;5074255;28;20309;-63
2022/04/29 02:07:14;;;;;;;10.23;8.67;;;;;;;6.30;100.00;99132.03;5073208;28;20218;-63
2022/04/29 02:09:41;;;;;;;9.33;8.30;;;;;;;6.33;100.00;99130.16;5074572;28;20215;-63
2022/04/29 02:12:09;;;;;;;9.83;8.70;;;;;;;6.30;100.00;99132.88;5074341;28;20220;-64
2022/04/29 02:14:39;;;;;;;12.30;9.93;;;;;;;6.28;100.00;99123.38;5074095;28;20213;-63
2022/04/29 02:17:07;;;;;;;12.57;9.50;;;;;;;6.28;100.00;99124.22;5074501;28;20581;-63
2022/04/29 02:19:34;;;;;;;10.50;9.40;;;;;;;6.21;100.00;99122.72;5074367;28;20214;-63
2022/04/29 02:22:02;;;;;;;12.43;11.00;;;;;;;6.20;100.00;99121.00;5074065;28;20673;-63
2022/04/29 02:24:28;;;;;;;13.27;10.57;;;;;;;6.17;100.00;99110.59;5074066;28;20215;-63
2022/04/29 02:26:55;;;;;;;12.40;10.37;;;;;;;6.16;100.00;99123.81;5064712;28;20221;-63
2022/04/29 02:29:22;;;;;;;13.47;11.07;;;;;;;6.17;100.00;99121.09;5074035;28;20234;-63
2022/04/29 02:31:52;;;;;;;12.63;11.13;;;;;;;6.16;100.00;99116.78;5072477;28;20219;-62
2022/04/29 02:34:19;;;;;;;12.60;10.90;;;;;;;6.11;100.00;99110.00;5073928;28;20224;-63
2022/04/29 02:36:45;;;;;;;12.23;10.77;;;;;;;6.03;100.00;99102.38;5074029;28;20217;-63
2022/04/29 02:39:11;;;;;;;11.97;10.47;;;;;;;6.02;100.00;99108.56;5074134;28;20216;-63
2022/04/29 02:41:38;;;;;;;11.50;10.30;;;;;;;5.98;100.00;99104.31;5073752;28;20680;-62
2022/04/29 02:44:05;;;;;;;10.87;9.83;;;;;;;5.92;100.00;99095.81;5074051;28;20238;-62
2022/04/29 02:46:32;;;;;;;10.13;9.13;;;;;;;5.86;100.00;99110.00;5073564;28;20216;-63
2022/04/29 02:49:00;;;;;;;10.30;9.23;;;;;;;5.86;100.00;99111.78;5073849;28;20261;-63
2022/04/29 02:51:26;;;;;;;11.80;9.80;;;;;;;5.75;100.00;99106.84;5073493;28;20217;-63
2022/04/29 02:53:53;;;;;;;11.27;9.47;;;;;;;5.70;100.00;99098.31;5073552;28;20217;-62
2022/04/29 02:56:20;;;;;;;10.63;9.50;;;;;;;5.66;100.00;99101.94;5073790;28;20224;-62
2022/04/29 02:58:46;;;;;;;9.77;8.60;;;;;;;5.64;100.00;99098.50;5072110;28;20217;-63
2022/04/29 03:01:13;;;;;;;10.87;9.30;;;;;;;5.62;100.00;99102.94;5072838;28;20239;-63
2022/04/29 03:03:39;;;;;;;10.10;9.07;;;;;;;5.65;100.00;99099.34;5073478;28;20237;-64
2022/04/29 03:06:07;;;;;;;10.00;9.00;;;;;;;5.62;100.00;99100.31;5073572;28;20218;-64
2022/04/29 03:08:33;;;;;;;10.60;9.60;;;;;;;5.62;100.00;99094.22;5073401;28;20247;-65
2022/04/29 03:11:01;;;;;;;11.13;9.57;;;;;;;5.62;100.00;99095.06;5073392;28;20225;-63
2022/04/29 03:13:27;;;;;;;10.73;9.63;;;;;;;5.62;100.00;99089.81;5073223;28;20222;-63
2022/04/29 03:15:54;;;;;;;10.60;9.50;;;;;;;5.65;100.00;99088.88;5066289;28;20652;-63
2022/04/29 03:18:22;;;;;;;10.07;8.90;;;;;;;5.62;100.00;99097.69;5073106;28;20219;-63
2022/04/29 03:20:50;;;;;;;9.93;8.73;;;;;;;5.64;100.00;99098.50;5073295;28;20300;-63
2022/04/29 03:23:18;;;;;;;10.50;9.40;;;;;;;5.67;100.00;99089.69;5073278;28;20221;-63
2022/04/29 03:25:45;;;;;;;10.70;9.53;;;;;;;5.64;100.00;99093.28;5071525;28;20236;-63
2022/04/29 03:28:12;;;;;;;12.23;10.93;;;;;;;5.70;100.00;99079.94;5072994;28;20235;-63
2022/04/29 03:30:38;;;;;;;10.43;9.43;;;;;;;5.69;100.00;99085.22;5073242;28;20303;-63
2022/04/29 03:33:07;;;;;;;12.03;10.83;;;;;;;5.64;100.00;99067.03;5073212;28;20218;-63
2022/04/29 03:35:39;;;;;;;11.33;10.13;;;;;;;5.65;100.00;99079.25;5073184;28;20216;-63
2022/04/29 03:38:06;;;;;;;11.63;10.43;;;;;;;5.61;100.00;99082.88;5072975;28;20225;-63
2022/04/29 03:40:35;;;;;;;12.00;10.27;;;;;;;5.60;100.00;99075.91;5072800;28;20590;-63
2022/04/29 03:43:01;;;;;;;11.47;10.10;;;;;;;5.62;100.00;99071.47;5072979;28;20233;-63
2022/04/29 03:45:28;;;;;;;13.30;11.33;;;;;;;5.62;100.00;99079.34;5072823;28;20222;-63
2022/04/29 03:47:55;;;;;;;12.03;10.80;;;;;;;5.65;100.00;99079.25;5073083;28;20228;-63
2022/04/29 03:50:23;;;;;;;12.07;10.30;;;;;;;5.63;100.00;99070.56;5071050;28;20728;-64
2022/04/29 03:52:52;;;;;;;12.40;10.57;;;;;;;5.60;100.00;99075.91;5072768;28;20214;-62
2022/04/29 03:55:20;;;;;;;11.60;10.40;;;;;;;5.60;100.00;99075.03;5072658;28;20670;-63
2022/04/29 03:57:48;;;;;;;11.13;10.03;;;;;;;5.59;100.00;99074.22;5073195;28;20224;-62
2022/04/29 04:00:16;;;;;;;10.37;9.27;;;;;;;5.54;100.00;99078.75;5072502;28;20208;-62
2022/04/29 04:02:43;;;;;;;12.37;9.53;;;;;;;5.49;100.00;99088.53;5072564;28;20297;-63
2022/04/29 04:05:11;;;;;;;10.10;9.10;;;;;;;5.48;100.00;99081.59;5072667;28;20219;-62
2022/04/29 04:07:37;;;;;;;10.27;9.27;;;;;;;5.44;100.00;99074.72;5072582;28;20222;-63
2022/04/29 04:10:04;;;;;;;10.73;9.50;;;;;;;5.41;100.00;99081.81;5072729;28;20237;-63
2022/04/29 04:12:38;;;;;;;11.17;9.67;;;;;;;5.45;100.00;99080.81;5075101;28;20224;-63
2022/04/29 04:15:08;;;;;;;10.27;9.27;;;;;;;5.48;100.00;99089.44;5076833;28;20211;-63
2022/04/29 04:17:34;;;;;;;10.23;9.13;;;;;;;5.46;100.00;99087.78;5074917;28;20217;-63
2022/04/29 04:20:01;;;;;;;10.30;9.10;;;;;;;5.46;100.00;99087.78;5076711;28;20221;-64
2022/04/29 04:22:28;;;;;;;10.90;9.30;;;;;;;5.42;100.00;99083.53;5076676;28;20549;-62
2022/04/29 04:24:55;;;;;;;10.70;9.20;;;;;;;5.52;100.00;99085.81;5076238;28;20205;-63
2022/04/29 04:27:21;;;;;;;12.33;9.37;;;;;;;5.60;100.00;99096.91;5076570;28;20212;-63
2022/04/29 04:29:48;;;;;;;12.27;10.40;;;;;;;5.62;100.00;99104.72;5071242;28;20238;-62
2022/04/29 04:32:15;;;;;;;10.80;9.70;;;;;;;5.76;100.00;99100.72;5076461;28;20242;-65
2022/04/29 04:34:51;;;;;;;10.57;9.57;;;;;;;5.84;100.00;99090.84;5076570;28;20214;-63
2022/04/29 04:37:17;;;;;;;9.70;8.80;;;;;;;5.92;100.00;99099.28;5076159;28;20221;-64
2022/04/29 04:39:44;;;;;;;9.87;8.73;;;;;;;6.04;100.00;99109.34;5076271;28;20269;-65
2022/04/29 04:42:11;;;;;;;10.63;9.50;;;;;;;6.16;100.00;99111.53;5074565;28;20252;-64
2022/04/29 04:44:37;;;;;;;10.57;9.47;;;;;;;6.30;100.00;99111.03;5075196;28;20225;-62
2022/04/29 04:47:05;;;;;;;10.63;9.53;;;;;;;6.45;100.00;99113.94;5076274;28;20209;-63
2022/04/29 04:49:33;;;;;;;10.73;9.63;;;;;;;6.62;100.00;99119.44;5075656;28;20239;-63
2022/04/29 04:52:00;;;;;;;10.77;9.70;;;;;;;6.73;100.00;99117.22;5075283;28;20326;-63
2022/04/29 04:54:27;;;;;;;11.17;9.87;;;;;;;6.78;100.00;99115.28;5075914;28;20214;-62
2022/04/29 04:56:53;;;;;;;9.17;8.30;;;;;;;6.84;100.00;99112.41;5075901;28;20639;-63
2022/04/29 04:59:20;;;;;;;10.47;9.40;;;;;;;6.88;100.00;99111.41;5075603;28;20218;-64
2022/04/29 05:01:46;;;;;;;11.73;10.20;;;;;;;6.90;100.00;99114.81;5075772;28;20583;-63
2022/04/29 05:04:13;;;;;;;13.53;10.67;;;;;;;6.97;100.00;99110.19;5075762;28;20214;-63
2022/04/29 05:06:41;;;;;;;11.27;9.20;;;;;;;6.94;100.00;99121.66;5075825;28;20578;-63
2022/04/29 05:09:07;;;;;;;10.70;9.60;;;;;;;6.95;100.00;99118.13;5073692;28;20241;-62
2022/04/29 05:11:34;;;;;;;11.17;10.07;;;;;;;6.94;100.00;99115.53;5075629;28;20218;-63
2022/04/29 05:14:01;;;;;;;12.10;10.00;;;;;;;6.94;100.00;99119.03;5075544;28;20219;-63
2022/04/29 05:16:28;;;;;;;11.40;10.23;;;;;;;7.00;100.00;99115.31;5075563;28;20585;-62
2022/04/29 05:18:54;;;;;;;10.70;9.53;;;;;;;7.07;100.00;99122.03;5075238;28;20218;-63
2022/04/29 05:21:21;;;;;;;13.70;11.40;;;;;;;7.12;100.00;99123.56;5075262;28;20230;-63
2022/04/29 05:23:48;;;;;;;11.53;10.33;;;;;;;7.25;100.00;99122.16;5074446;28;20211;-62
2022/04/29 05:26:15;;;;;;;11.30;10.20;;;;;;;7.36;100.00;99120.78;5075187;28;20570;-63
2022/04/29 05:28:41;;;;;;;11.47;10.00;;;;;;;7.43;100.00;99124.91;5074940;28;20243;-63
2022/04/29 05:31:08;;;;;;;12.70;11.40;;;;;;;7.55;100.00;99131.44;5075296;28;20218;-62
2022/04/29 05:33:38;;;;;;;11.70;10.50;;;;;;;7.63;100.00;99135.47;5075316;28;20215;-62
2022/04/29 05:36:06;;;;;;;12.87;11.47;;;;;;;7.73;100.00;99133.31;5073692;28;20214;-63
2022/04/29 05:43:59;;;;;;;11.73;10.63;;;;;;;8.22;100.00;99132.94;5075144;28;20793;-64
2022/04/29 05:46:25;;;;;;;11.53;10.33;;;;;;;8.43;100.00;99135.47;5072705;28;20214;-63
2022/04/29 05:48:52;;;;;;;12.27;11.07;;;;;;;8.67;100.00;99138.75;5075009;28;20246;-63
2022/04/29 05:51:18;;;;;;;11.07;9.80;;;;;;;8.86;100.00;99134.34;5074731;28;20217;-63
2022/04/29 05:53:45;;;;;;;10.73;9.63;;;;;;;9.03;100.00;99134.44;5075158;28;20219;-63
2022/04/29 05:56:11;;;;;;;10.53;9.43;;;;;;;9.31;100.00;99142.75;5074905;28;20219;-63
2022/04/29 05:58:39;;;;;;;9.37;8.30;;;;;;;9.67;100.00;99140.94;5074425;28;20207;-63
2022/04/29 06:01:06;;;;;;;10.30;9.30;;;;;;;9.97;100.00;99144.69;5072925;28;20630;-63
2022/04/29 06:03:32;;;;;;;9.53;8.63;;;;;;;10.45;100.00;99142.19;5074563;28;20217;-64
2022/04/29 06:05:59;;;;;;;8.80;7.90;;;;;;;11.18;95.97;99139.94;5074787;28;20311;-64
2022/04/29 06:08:25;;;;;;;8.93;8.03;;;;;;;12.05;88.74;99134.84;5074657;28;20221;-64
2022/04/29 06:10:52;;;;;;;8.90;7.77;;;;;;;12.99;83.08;99136.06;5074685;28;20207;-64
2022/04/29 06:13:18;;;;;;;9.67;8.67;;;;;;;13.60;77.55;99131.16;5074516;28;20299;-62
2022/04/29 06:15:46;;;;;;;9.70;8.70;;;;;;;13.97;74.96;99143.72;5074315;28;20215;-63
2022/04/29 06:18:13;;;;;;;10.43;9.33;;;;;;;14.37;72.76;99126.81;5072014;28;20215;-62
2022/04/29 06:20:39;;;;;;;9.13;8.23;;;;;;;14.74;70.62;99141.94;5074512;28;20215;-61
2022/04/29 06:23:06;;;;;;;9.03;8.13;;;;;;;14.89;69.85;99140.84;5074115;28;20219;-62
2022/04/29 06:25:32;;;;;;;10.83;9.20;;;;;;;14.87;69.10;99132.13;5074154;28;20209;-62
2022/04/29 06:27:59;;;;;;;10.93;9.83;;;;;;;14.79;69.06;99137.13;5072605;28;20216;-62
2022/04/29 06:30:25;;;;;;;12.63;9.07;;;;;;;14.66;70.51;99141.63;5074080;28;20234;-64
2022/04/29 06:32:55;;;;;;;10.17;9.17;;;;;;;13.97;73.04;99144.59;5073820;28;20217;-64
2022/04/29 06:35:22;;;;;;;10.03;8.90;;;;;;;13.36;76.85;99140.72;5072804;28;20220;-62
2022/04/29 06:37:48;;;;;;;10.53;8.90;;;;;;;13.00;79.71;99143.06;5073656;28;20218;-62
2022/04/29 06:40:15;;;;;;;11.80;9.07;;;;;;;12.83;82.65;99140.59;5073878;28;20212;-63
2022/04/29 06:42:45;;;;;;;15.67;10.13;;;;;;;12.81;83.90;99139.84;5073934;28;20247;-63
2022/04/29 06:45:12;;;;;;;10.63;9.57;;;;;;;12.84;84.32;99137.00;5073965;28;20239;-63
2022/04/29 06:47:38;;;;;;;9.90;8.90;;;;;;;12.91;83.15;99143.63;5073468;28;20219;-63
2022/04/29 06:50:10;;;;;;;10.60;9.50;;;;;;;13.00;83.05;99143.94;5073813;28;20244;-63
2022/04/29 06:52:36;;;;;;;11.17;9.53;;;;;;;13.13;81.30;99144.00;5073819;28;20309;-64
2022/04/29 06:55:03;;;;;;;10.43;9.27;;;;;;;13.25;81.95;99143.22;5072149;28;20589;-64
2022/04/29 06:57:30;;;;;;;11.83;9.93;;;;;;;13.45;80.94;99129.53;5073843;28;20213;-63
2022/04/29 06:59:57;;;;;;;11.17;9.97;;;;;;;13.59;78.80;99138.31;5072344;28;20222;-63
2022/04/29 07:02:24;;;;;;;10.50;9.43;;;;;;;13.67;78.79;99135.13;5073861;28;20226;-63
2022/04/29 07:04:53;;;;;;;11.80;10.60;;;;;;;13.79;80.66;99129.88;5073804;28;20248;-63
2022/04/29 07:07:20;;;;;;;11.90;10.70;;;;;;;13.86;78.75;99130.28;5073712;28;20217;-63
2022/04/29 07:09:47;;;;;;;12.10;9.03;;;;;;;13.84;78.81;99126.91;5073083;28;20246;-63
2022/04/29 07:12:13;;;;;;;10.03;9.13;;;;;;;13.79;76.76;99131.66;5073564;28;20225;-63
2022/04/29 07:14:40;;;;;;;11.37;9.50;;;;;;;13.79;77.44;99134.31;5073194;28;20218;-63
2022/04/29 07:17:08;;;;;;;11.00;9.80;;;;;;;13.86;76.97;99124.97;5073429;28;20237;-63
2022/04/29 07:19:37;;;;;;;11.67;9.47;;;;;;;13.92;75.95;99127.22;5072521;28;20217;-63
2022/04/29 07:22:03;;;;;;;10.60;9.37;;;;;;;14.01;76.99;99119.50;5073079;28;20218;-63
2022/04/29 07:24:32;;;;;;;10.33;9.43;;;;;;;14.10;78.22;99118.00;5073387;28;20218;-63
2022/04/29 07:27:00;;;;;;;10.13;8.97;;;;;;;14.21;76.63;99118.19;5072885;28;20587;-63
2022/04/29 07:29:27;;;;;;;10.50;9.40;;;;;;;14.36;76.35;99109.16;5073754;28;20242;-63
2022/04/29 07:31:53;;;;;;;9.47;8.47;;;;;;;14.53;75.23;99116.81;5073454;28;20214;-63
2022/04/29 07:41:43;;;;;;;10.70;8.53;;;;;;;14.60;73.57;99110.13;5073174;28;20210;-63
2022/04/29 07:42:50;;;;;;;8.63;7.73;;;;;;;14.88;73.44;99102.75;5043140;28;20244;-63
2022/04/29 07:45:17;;;;;;;9.87;8.87;;;;;;;15.05;70.08;99104.19;5033229;28;20314;-64
2022/04/29 07:47:43;;;;;;;9.20;8.27;;;;;;;14.89;68.93;99115.09;5048677;28;20219;-64
2022/04/29 07:50:11;;;;;;;9.63;8.73;;;;;;;14.85;69.98;99110.09;5071402;28;20238;-63
2022/04/29 07:52:38;;;;;;;10.07;9.00;;;;;;;14.73;70.25;99105.63;5069381;28;20630;-63
2022/04/29 07:55:07;;;;;;;10.67;8.90;;;;;;;14.66;70.80;99101.72;5059396;28;20218;-63
2022/04/29 07:57:34;;;;;;;8.60;7.80;;;;;;;14.51;69.79;99108.09;5071710;28;20215;-63
2022/04/29 08:00:00;;;;;;;9.20;7.67;;;;;;;14.47;71.65;99106.59;5071759;28;20219;-62
2022/04/29 08:02:27;;;;;;;8.57;7.87;;;;;;;14.35;70.86;99102.16;5068684;28;20676;-63
2022/04/29 08:04:53;;;;;;;7.87;7.10;;;;;;;14.21;71.39;99094.25;5071583;28;20211;-64
2022/04/29 08:07:20;;;;;;;7.57;6.83;;;;;;;14.09;71.18;99092.38;5071591;28;20210;-65
2022/04/29 08:09:46;;;;;;;7.43;6.73;;;;;;;14.02;72.38;99099.94;5070550;28;20239;-63
2022/04/29 08:12:15;;;;;;;7.53;6.83;;;;;;;13.96;72.41;99100.34;5068848;28;20214;-63
2022/04/29 08:14:41;;;;;;;8.00;7.20;;;;;;;13.91;71.02;99101.59;5069708;28;20309;-64
2022/04/29 08:17:08;;;;;;;7.73;7.00;;;;;;;13.83;71.03;99107.47;5071421;28;20225;-64
2022/04/29 08:19:34;;;;;;;8.47;7.67;;;;;;;13.87;70.63;99105.44;5071295;28;20230;-63
2022/04/29 08:22:02;;;;;;;7.77;7.07;;;;;;;13.96;67.71;99102.16;5071361;28;20225;-64
2022/04/29 08:24:29;;;;;;;8.03;7.07;;;;;;;14.06;61.61;99100.59;5071337;28;20224;-64
2022/04/29 08:26:55;;;;;;;7.30;6.60;;;;;;;14.14;59.27;99103.56;5071334;28;20573;-64
2022/04/29 08:29:23;;;;;;;7.23;6.53;;;;;;;14.32;60.31;99100.53;5071191;28;20242;-64
2022/04/29 08:31:50;;;;;;;8.87;6.87;;;;;;;14.55;61.36;99109.59;5071234;28;20218;-64
2022/04/29 08:34:17;;;;;;;7.93;7.10;;;;;;;14.81;59.80;99111.25;5071159;28;20222;-65
2022/04/29 08:36:44;;;;;;;9.13;7.43;;;;;;;14.95;60.58;99103.13;5071181;28;20211;-64
2022/04/29 08:39:10;;;;;;;8.77;7.33;;;;;;;15.11;57.94;99109.06;5070800;28;20207;-63
2022/04/29 08:41:38;;;;;;;7.37;6.50;;;;;;;15.30;59.06;99093.47;5070262;28;20222;-63
2022/04/29 08:44:10;;;;;;;6.47;5.83;;;;;;;15.53;59.42;99093.50;5069549;28;20246;-64
2022/04/29 08:46:40;;;;;;;6.10;5.50;;;;;;;15.80;60.57;99087.91;5071405;28;20226;-65
2022/04/29 08:49:07;;;;;;;8.17;6.50;;;;;;;16.07;59.50;99092.03;5070685;28;20223;-64
2022/04/29 08:51:35;;;;;;;7.87;6.40;;;;;;;16.37;57.27;99090.53;5071091;28;20223;-64
2022/04/29 08:54:02;;;;;;;9.03;7.63;;;;;;;16.55;57.96;99089.13;5071149;28;20215;-65
2022/04/29 08:59:13;;;;;;;11.30;6.37;;;;;;;16.75;57.23;99087.53;5072565;28;20583;-65
2022/04/29 09:01:43;;;;;;;7.23;6.50;;;;;;;16.91;55.67;99080.03;5074234;28;20230;-65
2022/04/29 09:04:09;;;;;;;7.83;6.40;;;;;;;17.02;54.06;99078.19;5074573;28;20219;-64
2022/04/29 09:06:47;;;;;;;7.73;6.87;;;;;;;17.09;54.17;99079.41;5072598;28;20719;-64
2022/04/29 09:09:13;;;;;;;7.63;6.83;;;;;;;17.20;54.68;99071.34;5074271;28;20298;-64
2022/04/29 09:11:40;;;;;;;10.53;8.83;;;;;;;17.33;53.95;99069.41;5074179;28;20215;-63
2022/04/29 09:14:20;;;;;;;8.23;7.10;;;;;;;17.45;57.33;99064.91;5074053;28;20216;-64
2022/04/29 09:16:48;;;;;;;9.63;7.07;;;;;;;17.60;54.62;99067.16;5074128;28;20215;-64
2022/04/29 09:19:30;;;;;;;8.20;5.97;;;;;;;17.79;51.97;99070.00;5073917;28;20219;-64
2022/04/29 09:22:05;;;;;;;8.80;6.50;;;;;;;18.02;53.53;99066.25;5074025;28;20628;-64
2022/04/29 09:24:31;;;;;;;7.93;6.53;;;;;;;18.21;51.48;99065.50;5074239;28;20222;-64
2022/04/29 09:27:00;;;;;;;7.63;6.77;;;;;;;18.37;49.01;99061.44;5073686;28;20212;-64
2022/04/29 09:29:28;;;;;;;9.23;6.30;;;;;;;18.46;45.45;99066.00;5073752;28;20219;-64
2022/04/29 09:31:58;;;;;;;6.50;5.50;;;;;;;18.47;46.14;99062.34;5073714;28;20219;-64
2022/04/29 09:34:44;;;;;;;5.73;5.23;;;;;;;18.54;45.24;99057.31;5072522;28;20269;-63
2022/04/29 09:37:14;;;;;;;6.73;6.00;;;;;;;18.76;45.67;99047.25;5072248;28;20211;-64
2022/04/29 09:39:50;;;;;;;7.30;5.97;;;;;;;18.84;43.35;99042.06;5073999;28;20219;-64
2022/04/29 09:42:16;;;;;;;7.07;5.60;;;;;;;18.88;43.73;99045.31;5073567;28;20284;-65
2022/04/29 09:44:43;;;;;;;7.07;6.37;;;;;;;18.99;45.44;99038.03;5071234;28;20227;-64
2022/04/29 09:47:12;;;;;;;7.17;6.00;;;;;;;18.93;44.73;99033.22;5073921;28;20214;-64
2022/04/29 09:49:40;;;;;;;6.53;5.37;;;;;;;19.01;46.55;99029.88;5073539;28;20222;-64
2022/04/29 09:52:08;;;;;;;6.40;4.90;;;;;;;19.05;44.77;99026.78;5073752;28;20591;-63
2022/04/29 09:54:37;;;;;;;6.87;5.50;;;;;;;19.24;40.63;99013.44;5071263;28;20216;-63
2022/04/29 09:57:09;;;;;;;5.70;4.90;;;;;;;19.27;47.75;99015.84;5061984;28;20217;-64
2022/04/29 09:59:37;;;;;;;5.50;5.00;;;;;;;19.30;46.71;99015.56;5071827;28;20246;-64
2022/04/29 10:02:05;;;;;;;6.27;5.67;;;;;;;19.39;46.58;99014.72;5073560;28;20222;-65
2022/04/29 10:04:35;;;;;;;4.93;4.53;;;;;;;19.27;41.36;99005.13;5073352;28;20224;-65
2022/04/29 10:07:04;;;;;;;6.00;5.40;;;;;;;19.15;41.78;99014.22;5073127;28;20226;-63
2022/04/29 10:09:32;;;;;;;5.87;5.03;;;;;;;19.08;44.03;99010.41;5072876;28;20648;-66
2022/04/29 10:12:02;;;;;;;6.17;5.53;;;;;;;19.15;50.65;99005.34;5073360;28;20651;-65
2022/04/29 10:14:30;;;;;;;7.90;5.97;;;;;;;19.13;46.32;99008.16;5073031;28;20216;-69
2022/04/29 10:22:34;;;;;;;5.27;4.73;;;;;;;19.20;45.17;98998.63;5072560;28;20217;-69
2022/04/29 10:25:05;;;;;;;7.20;5.23;;;;;;;19.28;46.58;98990.75;5072884;28;20212;-69
2022/04/29 10:27:33;;;;;;;6.33;4.83;;;;;;;19.41;46.02;98991.31;5071323;28;20219;-68
2022/04/29 10:30:00;;;;;;;4.57;4.17;;;;;;;19.57;44.65;98996.94;5072507;28;20235;-69
2022/04/29 10:32:27;;;;;;;4.93;4.17;;;;;;;19.63;44.65;98990.19;5072834;28;20217;-69
2022/04/29 10:34:55;;;;;;;4.97;4.40;;;;;;;19.52;45.91;98985.78;5073021;28;20265;-70
2022/04/29 10:37:32;;;;;;;5.30;4.30;;;;;;;19.36;42.80;98988.22;5072812;28;20211;-70
2022/04/29 10:40:10;;;;;;;5.33;4.23;;;;;;;19.33;44.69;98985.78;5072759;28;20292;-69
2022/04/29 10:43:07;;;;;;;4.53;4.13;;;;;;;19.34;45.98;98979.47;5072593;28;20305;-69
2022/04/29 10:45:34;;;;;;;3.97;3.50;;;;;;;19.50;45.63;98981.59;5060777;28;20217;-69
2022/04/29 10:48:30;;;;;;;4.00;3.30;;;;;;;19.59;46.09;98978.91;5072531;28;20215;-69
2022/04/29 10:50:58;;;;;;;4.17;3.70;;;;;;;19.68;44.10;98972.69;5071980;28;20242;-70
2022/04/29 10:53:25;;;;;;;4.30;3.90;;;;;;;19.79;45.28;98971.66;5070810;28;20218;-70
2022/04/29 10:55:51;;;;;;;17.13;6.00;;;;;;;19.77;43.65;98966.47;5071174;28;20219;-70
2022/04/29 10:58:22;;;;;;;4.50;4.10;;;;;;;19.89;43.02;98961.78;5072387;28;20211;-69
2022/04/29 11:00:56;;;;;;;4.50;4.10;;;;;;;19.91;42.44;98952.59;5071977;28;20245;-70
2022/04/29 11:03:38;;;;;;;6.37;4.37;;;;;;;19.92;41.65;98954.28;5072010;28;20212;-70
2022/04/29 11:06:11;;;;;;;4.50;4.13;;;;;;;20.05;43.64;98952.13;5061561;28;20224;-69
2022/04/29 11:08:37;;;;;;;4.93;4.10;;;;;;;20.22;43.56;98954.09;5072236;28;20215;-71
2022/04/29 11:11:04;;;;;;;5.23;3.67;;;;;;;20.44;44.24;98945.69;5071959;28;20238;-70
2022/04/29 11:13:35;;;;;;;5.00;4.50;;;;;;;20.59;37.42;98949.56;5071862;28;20216;-70
2022/04/29 11:16:09;;;;;;;4.80;4.03;;;;;;;20.64;38.51;98952.66;5072147;28;20211;-70
2022/04/29 11:18:36;;;;;;;4.87;4.00;;;;;;;20.93;39.89;98945.31;5071841;28;20208;-70
2022/04/29 11:24:40;;;;;;;4.43;3.63;;;;;;;21.03;37.88;98948.78;5069476;28;20215;-70
2022/04/29 11:26:43;;;;;;;4.00;3.70;;;;;;;21.08;37.98;98945.66;5071720;28;20354;-70
2022/04/29 11:29:10;;;;;;;3.77;3.47;;;;;;;21.08;39.10;98941.09;5071983;28;20227;-70
2022/04/29 11:31:37;;;;;;;3.40;3.03;;;;;;;21.14;37.81;98942.31;5071878;28;20240;-74
2022/04/29 11:34:08;;;;;;;4.37;3.23;;;;;;;21.18;37.83;98941.91;5072195;28;20646;-70
2022/04/29 11:36:35;;;;;;;4.40;3.20;;;;;;;21.21;35.19;98940.75;5071868;28;20211;-72
2022/04/29 11:39:08;;;;;;;3.47;3.17;;;;;;;21.11;38.43;98938.13;5071654;28;20223;-71
2022/04/29 11:41:35;;;;;;;3.87;3.07;;;;;;;21.12;38.25;98937.13;5071647;28;20830;-71
2022/04/29 11:44:02;;;;;;;3.27;2.97;;;;;;;21.18;36.75;98922.22;5071379;28;20248;-71
2022/04/29 11:46:29;;;;;;;3.50;3.20;;;;;;;21.21;37.14;98933.50;5069970;28;20227;-72
2022/04/29 11:48:57;;;;;;;3.57;3.27;;;;;;;21.29;36.46;98925.53;5070483;28;20219;-71
2022/04/29 11:51:24;;;;;;;2.90;2.70;;;;;;;21.43;36.93;98925.00;5071738;28;20239;-71
2022/04/29 11:54:00;;;;;;;3.03;2.77;;;;;;;21.52;38.17;98928.59;5071780;28;20242;-71
2022/04/29 11:56:36;;;;;;;3.33;2.80;;;;;;;21.47;37.42;98920.97;5071502;28;20214;-71